sensor_id;sensor_type;location;lat;lon;timestamp;temperature;humidity
33715;DHT22;20043;50.998;4.754;2023-08-20T00:01:24;21.70;99.90
33715;DHT22;20043;50.998;4.754;2023-08-20T00:03:51;21.70;99.90
33715;DHT22;20043;50.998;4.754;2023-08-20T00:06:18;21.60;99.90
33715;DHT22;20043;50.998;4.754;2023-08-20T00:08:44;21.60;99.90
33715;DHT22;20043;50.998;4.754;2023-08-20T00:11:10;21.70;99.90
33715;DHT22;20043;50.998;4.754;2023-08-20T00:13:36;21.70;99.90
33715;DHT22;20043;50.998;4.754;2023-08-20T00:16:02;21.90;99.90
33715;DHT22;20043;50.998;4.754;2023-08-20T00:18:29;21.90;99.90
33715;DHT22;20043;50.998;4.754;2023-08-20T00:20:54;21.90;99.90
33715;DHT22;20043;50.998;4.754;2023-08-20T00:23:21;21.90;99.90
33715;DHT22;20043;50.998;4.754;2023-08-20T00:25:47;21.80;99.90
33715;DHT22;20043;50.998;4.754;2023-08-20T00:28:13;21.70;99.90
33715;DHT22;20043;50.998;4.754;2023-08-20T00:30:39;21.80;99.90
33715;DHT22;20043;50.998;4.754;2023-08-20T00:33:05;21.90;99.90
33715;DHT22;20043;50.998;4.754;2023-08-20T00:35:31;21.90;99.90
33715;DHT22;20043;50.998;4.754;2023-08-20T00:37:56;21.60;99.90
33715;DHT22;20043;50.998;4.754;2023-08-20T00:40:22;21.50;99.90
33715;DHT22;20043;50.998;4.754;2023-08-20T00:42:48;21.70;99.90
33715;DHT22;20043;50.998;4.754;2023-08-20T00:45:13;21.90;99.90
33715;DHT22;20043;50.998;4.754;2023-08-20T00:47:40;21.90;99.90
33715;DHT22;20043;50.998;4.754;2023-08-20T00:50:06;21.90;99.90
33715;DHT22;20043;50.998;4.754;2023-08-20T00:52:32;21.80;99.90
33715;DHT22;20043;50.998;4.754;2023-08-20T00:54:58;21.80;99.90
33715;DHT22;20043;50.998;4.754;2023-08-20T00:57:25;21.70;99.90
33715;DHT22;20043;50.998;4.754;2023-08-20T00:59:52;21.70;99.90
33715;DHT22;20043;50.998;4.754;2023-08-20T01:02:20;21.80;99.90
33715;DHT22;20043;50.998;4.754;2023-08-20T01:04:47;21.90;99.90
33715;DHT22;20043;50.998;4.754;2023-08-20T01:08:02;21.90;99.90
33715;DHT22;20043;50.998;4.754;2023-08-20T01:10:42;21.90;99.90
33715;DHT22;20043;50.998;4.754;2023-08-20T01:13:12;21.90;99.90
33715;DHT22;20043;50.998;4.754;2023-08-20T01:15:38;22.00;99.90
33715;DHT22;20043;50.998;4.754;2023-08-20T01:18:04;22.00;99.90
33715;DHT22;20043;50.998;4.754;2023-08-20T01:20:35;21.90;99.90
33715;DHT22;20043;50.998;4.754;2023-08-20T01:26:07;21.80;99.90
33715;DHT22;20043;50.998;4.754;2023-08-20T01:28:37;21.70;99.90
33715;DHT22;20043;50.998;4.754;2023-08-20T01:31:05;21.60;99.90
33715;DHT22;20043;50.998;4.754;2023-08-20T01:33:31;21.70;99.90
33715;DHT22;20043;50.998;4.754;2023-08-20T01:35:57;21.90;99.90
33715;DHT22;20043;50.998;4.754;2023-08-20T01:38:23;21.90;99.90
33715;DHT22;20043;50.998;4.754;2023-08-20T01:40:49;21.70;99.90
33715;DHT22;20043;50.998;4.754;2023-08-20T01:43:15;21.60;99.90
33715;DHT22;20043;50.998;4.754;2023-08-20T01:45:40;21.60;99.90
33715;DHT22;20043;50.998;4.754;2023-08-20T01:48:06;21.60;99.90
33715;DHT22;20043;50.998;4.754;2023-08-20T01:50:34;21.70;99.90
33715;DHT22;20043;50.998;4.754;2023-08-20T01:53:00;21.70;99.90
33715;DHT22;20043;50.998;4.754;2023-08-20T01:55:25;21.70;99.90
33715;DHT22;20043;50.998;4.754;2023-08-20T01:57:51;21.80;99.90
33715;DHT22;20043;50.998;4.754;2023-08-20T02:00:17;21.90;99.90
33715;DHT22;20043;50.998;4.754;2023-08-20T02:02:42;21.70;99.90
33715;DHT22;20043;50.998;4.754;2023-08-20T02:05:08;21.80;99.90
33715;DHT22;20043;50.998;4.754;2023-08-20T02:07:36;21.70;99.90
33715;DHT22;20043;50.998;4.754;2023-08-20T02:10:01;21.60;99.90
33715;DHT22;20043;50.998;4.754;2023-08-20T02:12:27;21.70;99.90
33715;DHT22;20043;50.998;4.754;2023-08-20T02:14:53;21.80;99.90
33715;DHT22;20043;50.998;4.754;2023-08-20T02:17:19;21.90;99.90
33715;DHT22;20043;50.998;4.754;2023-08-20T02:19:44;21.80;99.90
33715;DHT22;20043;50.998;4.754;2023-08-20T02:22:10;21.70;99.90
33715;DHT22;20043;50.998;4.754;2023-08-20T02:24:36;21.50;99.90
33715;DHT22;20043;50.998;4.754;2023-08-20T02:27:02;21.50;99.90
33715;DHT22;20043;50.998;4.754;2023-08-20T02:29:28;21.50;99.90
33715;DHT22;20043;50.998;4.754;2023-08-20T02:31:54;21.50;99.90
33715;DHT22;20043;50.998;4.754;2023-08-20T02:34:19;21.30;99.90
33715;DHT22;20043;50.998;4.754;2023-08-20T02:36:45;21.20;99.90
33715;DHT22;20043;50.998;4.754;2023-08-20T02:39:10;21.10;99.90
33715;DHT22;20043;50.998;4.754;2023-08-20T02:41:36;21.10;99.90
33715;DHT22;20043;50.998;4.754;2023-08-20T02:44:03;21.10;99.90
33715;DHT22;20043;50.998;4.754;2023-08-20T02:46:29;21.10;99.90
33715;DHT22;20043;50.998;4.754;2023-08-20T02:48:55;21.00;99.90
33715;DHT22;20043;50.998;4.754;2023-08-20T02:51:20;21.00;99.90
33715;DHT22;20043;50.998;4.754;2023-08-20T02:53:46;21.00;99.90
33715;DHT22;20043;50.998;4.754;2023-08-20T02:56:12;20.90;99.90
33715;DHT22;20043;50.998;4.754;2023-08-20T02:58:37;20.70;99.90
33715;DHT22;20043;50.998;4.754;2023-08-20T03:01:03;20.70;99.90
33715;DHT22;20043;50.998;4.754;2023-08-20T03:03:28;20.60;99.90
33715;DHT22;20043;50.998;4.754;2023-08-20T03:05:54;20.50;99.90
33715;DHT22;20043;50.998;4.754;2023-08-20T03:08:20;20.50;99.90
33715;DHT22;20043;50.998;4.754;2023-08-20T03:10:45;20.60;99.90
33715;DHT22;20043;50.998;4.754;2023-08-20T03:13:11;20.50;99.90
33715;DHT22;20043;50.998;4.754;2023-08-20T03:15:36;20.50;99.90
33715;DHT22;20043;50.998;4.754;2023-08-20T03:18:08;20.50;99.90
33715;DHT22;20043;50.998;4.754;2023-08-20T03:20:34;20.50;99.90
33715;DHT22;20043;50.998;4.754;2023-08-20T03:23:00;20.50;99.90
33715;DHT22;20043;50.998;4.754;2023-08-20T03:25:25;20.50;99.90
33715;DHT22;20043;50.998;4.754;2023-08-20T03:27:52;20.50;99.90
33715;DHT22;20043;50.998;4.754;2023-08-20T03:30:17;20.50;99.90
33715;DHT22;20043;50.998;4.754;2023-08-20T03:32:43;20.40;99.90
33715;DHT22;20043;50.998;4.754;2023-08-20T03:35:09;20.40;99.90
33715;DHT22;20043;50.998;4.754;2023-08-20T03:37:35;20.40;99.90
33715;DHT22;20043;50.998;4.754;2023-08-20T03:40:01;20.40;99.90
33715;DHT22;20043;50.998;4.754;2023-08-20T03:42:27;20.40;99.90
33715;DHT22;20043;50.998;4.754;2023-08-20T03:44:53;20.50;99.90
33715;DHT22;20043;50.998;4.754;2023-08-20T03:47:18;20.40;99.90
33715;DHT22;20043;50.998;4.754;2023-08-20T03:49:46;20.40;99.90
33715;DHT22;20043;50.998;4.754;2023-08-20T03:52:13;20.30;99.90
33715;DHT22;20043;50.998;4.754;2023-08-20T03:54:39;20.30;99.90
33715;DHT22;20043;50.998;4.754;2023-08-20T03:57:04;20.30;99.90
33715;DHT22;20043;50.998;4.754;2023-08-20T03:59:30;20.30;99.90
33715;DHT22;20043;50.998;4.754;2023-08-20T04:01:56;20.30;99.90
33715;DHT22;20043;50.998;4.754;2023-08-20T04:04:22;20.20;99.90
33715;DHT22;20043;50.998;4.754;2023-08-20T04:06:48;20.20;99.90
33715;DHT22;20043;50.998;4.754;2023-08-20T04:09:13;20.20;99.90
33715;DHT22;20043;50.998;4.754;2023-08-20T04:11:39;20.10;99.90
33715;DHT22;20043;50.998;4.754;2023-08-20T04:14:05;20.20;99.90
33715;DHT22;20043;50.998;4.754;2023-08-20T04:16:30;20.20;99.90
33715;DHT22;20043;50.998;4.754;2023-08-20T04:18:56;20.20;99.90
33715;DHT22;20043;50.998;4.754;2023-08-20T04:21:22;20.20;99.90
33715;DHT22;20043;50.998;4.754;2023-08-20T04:23:47;20.10;99.90
33715;DHT22;20043;50.998;4.754;2023-08-20T04:26:13;20.10;99.90
33715;DHT22;20043;50.998;4.754;2023-08-20T04:28:39;20.00;99.90
33715;DHT22;20043;50.998;4.754;2023-08-20T04:31:04;20.00;99.90
33715;DHT22;20043;50.998;4.754;2023-08-20T04:33:30;20.10;99.90
33715;DHT22;20043;50.998;4.754;2023-08-20T04:35:55;20.20;99.90
33715;DHT22;20043;50.998;4.754;2023-08-20T04:38:21;20.10;99.90
33715;DHT22;20043;50.998;4.754;2023-08-20T04:40:47;20.00;99.90
33715;DHT22;20043;50.998;4.754;2023-08-20T04:43:13;19.90;99.90
33715;DHT22;20043;50.998;4.754;2023-08-20T04:45:40;19.70;99.90
33715;DHT22;20043;50.998;4.754;2023-08-20T04:48:05;19.90;99.90
33715;DHT22;20043;50.998;4.754;2023-08-20T04:50:31;19.90;99.90
33715;DHT22;20043;50.998;4.754;2023-08-20T04:52:57;19.90;99.90
33715;DHT22;20043;50.998;4.754;2023-08-20T04:55:25;19.80;99.90
33715;DHT22;20043;50.998;4.754;2023-08-20T04:57:51;19.80;99.90
33715;DHT22;20043;50.998;4.754;2023-08-20T05:00:16;19.80;99.90
33715;DHT22;20043;50.998;4.754;2023-08-20T05:02:42;19.90;99.90
33715;DHT22;20043;50.998;4.754;2023-08-20T05:05:08;19.80;99.90
33715;DHT22;20043;50.998;4.754;2023-08-20T05:07:34;19.90;99.90
33715;DHT22;20043;50.998;4.754;2023-08-20T05:10:00;20.00;99.90
33715;DHT22;20043;50.998;4.754;2023-08-20T05:12:25;20.10;99.90
33715;DHT22;20043;50.998;4.754;2023-08-20T05:14:51;20.20;99.90
33715;DHT22;20043;50.998;4.754;2023-08-20T05:17:17;20.30;99.90
33715;DHT22;20043;50.998;4.754;2023-08-20T05:19:42;20.50;99.90
33715;DHT22;20043;50.998;4.754;2023-08-20T05:22:08;20.80;99.90
33715;DHT22;20043;50.998;4.754;2023-08-20T05:24:33;21.10;99.90
33715;DHT22;20043;50.998;4.754;2023-08-20T05:27:15;21.50;99.90
33715;DHT22;20043;50.998;4.754;2023-08-20T05:29:42;21.70;99.90
33715;DHT22;20043;50.998;4.754;2023-08-20T05:32:08;22.10;99.90
33715;DHT22;20043;50.998;4.754;2023-08-20T05:34:34;22.40;99.90
33715;DHT22;20043;50.998;4.754;2023-08-20T05:37:00;22.80;99.90
33715;DHT22;20043;50.998;4.754;2023-08-20T05:39:26;22.70;99.90
33715;DHT22;20043;50.998;4.754;2023-08-20T05:41:55;22.80;99.90
33715;DHT22;20043;50.998;4.754;2023-08-20T05:44:21;22.70;99.90
33715;DHT22;20043;50.998;4.754;2023-08-20T05:46:47;22.50;99.90
33715;DHT22;20043;50.998;4.754;2023-08-20T05:49:13;22.60;99.90
33715;DHT22;20043;50.998;4.754;2023-08-20T05:51:44;22.90;99.90
33715;DHT22;20043;50.998;4.754;2023-08-20T05:54:10;23.20;99.90
33715;DHT22;20043;50.998;4.754;2023-08-20T05:56:36;23.70;99.90
33715;DHT22;20043;50.998;4.754;2023-08-20T05:59:02;24.10;99.90
33715;DHT22;20043;50.998;4.754;2023-08-20T06:01:27;24.50;99.90
33715;DHT22;20043;50.998;4.754;2023-08-20T06:03:53;25.00;99.90
33715;DHT22;20043;50.998;4.754;2023-08-20T06:06:18;25.60;99.90
33715;DHT22;20043;50.998;4.754;2023-08-20T06:08:44;26.10;99.90
33715;DHT22;20043;50.998;4.754;2023-08-20T06:11:09;26.30;99.90
33715;DHT22;20043;50.998;4.754;2023-08-20T06:13:35;26.80;99.90
33715;DHT22;20043;50.998;4.754;2023-08-20T06:16:01;27.30;99.90
33715;DHT22;20043;50.998;4.754;2023-08-20T06:18:26;27.70;99.90
33715;DHT22;20043;50.998;4.754;2023-08-20T06:20:52;28.10;99.90
33715;DHT22;20043;50.998;4.754;2023-08-20T06:23:17;28.10;99.90
33715;DHT22;20043;50.998;4.754;2023-08-20T06:25:43;28.20;99.90
33715;DHT22;20043;50.998;4.754;2023-08-20T06:28:09;28.20;99.90
33715;DHT22;20043;50.998;4.754;2023-08-20T06:30:35;28.00;99.90
33715;DHT22;20043;50.998;4.754;2023-08-20T06:33:01;28.20;99.90
33715;DHT22;20043;50.998;4.754;2023-08-20T06:35:26;28.30;99.90
33715;DHT22;20043;50.998;4.754;2023-08-20T06:37:52;28.30;99.90
33715;DHT22;20043;50.998;4.754;2023-08-20T06:40:18;28.10;99.90
33715;DHT22;20043;50.998;4.754;2023-08-20T06:42:43;28.00;99.90
33715;DHT22;20043;50.998;4.754;2023-08-20T06:45:09;27.70;99.90
33715;DHT22;20043;50.998;4.754;2023-08-20T06:47:35;27.60;99.90
33715;DHT22;20043;50.998;4.754;2023-08-20T06:50:01;27.40;99.90
33715;DHT22;20043;50.998;4.754;2023-08-20T06:52:26;27.30;99.90
33715;DHT22;20043;50.998;4.754;2023-08-20T06:54:52;27.00;99.90
33715;DHT22;20043;50.998;4.754;2023-08-20T06:57:18;26.90;99.90
33715;DHT22;20043;50.998;4.754;2023-08-20T06:59:43;26.70;99.90
33715;DHT22;20043;50.998;4.754;2023-08-20T07:02:10;26.40;99.90
33715;DHT22;20043;50.998;4.754;2023-08-20T07:04:35;26.20;99.90
33715;DHT22;20043;50.998;4.754;2023-08-20T07:07:01;25.90;99.90
33715;DHT22;20043;50.998;4.754;2023-08-20T07:09:27;25.70;99.90
33715;DHT22;20043;50.998;4.754;2023-08-20T07:11:52;25.60;99.90
33715;DHT22;20043;50.998;4.754;2023-08-20T07:14:18;25.50;99.90
33715;DHT22;20043;50.998;4.754;2023-08-20T07:16:43;25.40;99.90
33715;DHT22;20043;50.998;4.754;2023-08-20T07:19:09;25.40;99.90
33715;DHT22;20043;50.998;4.754;2023-08-20T07:21:35;25.40;99.90
33715;DHT22;20043;50.998;4.754;2023-08-20T07:24:00;25.40;99.90
33715;DHT22;20043;50.998;4.754;2023-08-20T07:26:26;25.30;99.90
33715;DHT22;20043;50.998;4.754;2023-08-20T07:28:52;25.20;99.90
33715;DHT22;20043;50.998;4.754;2023-08-20T07:33:54;25.00;99.90
33715;DHT22;20043;50.998;4.754;2023-08-20T07:36:21;25.10;99.90
33715;DHT22;20043;50.998;4.754;2023-08-20T07:38:50;25.20;99.90
33715;DHT22;20043;50.998;4.754;2023-08-20T07:41:16;25.40;99.90
33715;DHT22;20043;50.998;4.754;2023-08-20T07:43:42;25.30;99.90
33715;DHT22;20043;50.998;4.754;2023-08-20T07:46:09;25.40;99.90
33715;DHT22;20043;50.998;4.754;2023-08-20T07:48:35;25.40;99.90
33715;DHT22;20043;50.998;4.754;2023-08-20T07:51:02;25.30;99.90
33715;DHT22;20043;50.998;4.754;2023-08-20T07:53:28;25.30;99.90
33715;DHT22;20043;50.998;4.754;2023-08-20T07:55:54;25.30;99.90
33715;DHT22;20043;50.998;4.754;2023-08-20T07:58:20;25.30;99.90
33715;DHT22;20043;50.998;4.754;2023-08-20T08:00:45;25.40;99.90
33715;DHT22;20043;50.998;4.754;2023-08-20T08:03:11;25.50;99.90
33715;DHT22;20043;50.998;4.754;2023-08-20T08:05:49;25.60;99.90
33715;DHT22;20043;50.998;4.754;2023-08-20T08:08:16;25.70;99.90
33715;DHT22;20043;50.998;4.754;2023-08-20T08:10:42;25.80;99.90
33715;DHT22;20043;50.998;4.754;2023-08-20T08:13:11;25.50;99.90
33715;DHT22;20043;50.998;4.754;2023-08-20T08:15:36;25.50;99.90
33715;DHT22;20043;50.998;4.754;2023-08-20T08:18:02;25.80;99.90
33715;DHT22;20043;50.998;4.754;2023-08-20T08:20:28;26.00;99.90
33715;DHT22;20043;50.998;4.754;2023-08-20T08:22:54;26.10;99.90
33715;DHT22;20043;50.998;4.754;2023-08-20T08:25:20;25.90;99.90
33715;DHT22;20043;50.998;4.754;2023-08-20T08:27:45;25.90;99.90
33715;DHT22;20043;50.998;4.754;2023-08-20T08:30:11;25.90;99.90
33715;DHT22;20043;50.998;4.754;2023-08-20T08:32:37;26.10;99.90
33715;DHT22;20043;50.998;4.754;2023-08-20T08:35:03;26.30;99.90
33715;DHT22;20043;50.998;4.754;2023-08-20T08:37:28;26.20;99.90
33715;DHT22;20043;50.998;4.754;2023-08-20T08:39:54;26.40;99.90
33715;DHT22;20043;50.998;4.754;2023-08-20T08:42:22;26.20;99.90
33715;DHT22;20043;50.998;4.754;2023-08-20T08:44:49;26.40;99.90
33715;DHT22;20043;50.998;4.754;2023-08-20T08:47:15;26.60;99.90
33715;DHT22;20043;50.998;4.754;2023-08-20T08:49:42;26.50;99.90
33715;DHT22;20043;50.998;4.754;2023-08-20T08:52:10;26.70;99.90
33715;DHT22;20043;50.998;4.754;2023-08-20T08:54:36;26.80;99.90
33715;DHT22;20043;50.998;4.754;2023-08-20T08:57:02;26.70;99.90
33715;DHT22;20043;50.998;4.754;2023-08-20T08:59:28;26.90;99.90
33715;DHT22;20043;50.998;4.754;2023-08-20T09:01:54;26.90;99.90
33715;DHT22;20043;50.998;4.754;2023-08-20T09:04:22;26.90;99.90
33715;DHT22;20043;50.998;4.754;2023-08-20T09:06:50;27.10;99.90
33715;DHT22;20043;50.998;4.754;2023-08-20T09:09:18;27.30;99.90
33715;DHT22;20043;50.998;4.754;2023-08-20T09:11:44;27.10;99.90
33715;DHT22;20043;50.998;4.754;2023-08-20T09:14:24;26.90;99.90
33715;DHT22;20043;50.998;4.754;2023-08-20T09:17:00;27.20;99.90
33715;DHT22;20043;50.998;4.754;2023-08-20T09:19:31;27.20;99.90
33715;DHT22;20043;50.998;4.754;2023-08-20T09:22:00;27.30;99.90
33715;DHT22;20043;50.998;4.754;2023-08-20T09:24:32;27.30;99.90
33715;DHT22;20043;50.998;4.754;2023-08-20T09:26:58;27.30;99.90
33715;DHT22;20043;50.998;4.754;2023-08-20T09:29:27;27.20;99.90
33715;DHT22;20043;50.998;4.754;2023-08-20T09:32:01;27.20;99.90
33715;DHT22;20043;50.998;4.754;2023-08-20T09:34:36;27.30;99.90
33715;DHT22;20043;50.998;4.754;2023-08-20T09:37:03;27.30;99.90
33715;DHT22;20043;50.998;4.754;2023-08-20T09:39:28;27.60;99.90
33715;DHT22;20043;50.998;4.754;2023-08-20T09:41:55;27.70;99.90
33715;DHT22;20043;50.998;4.754;2023-08-20T09:44:23;27.90;99.90
33715;DHT22;20043;50.998;4.754;2023-08-20T09:46:50;28.00;99.90
33715;DHT22;20043;50.998;4.754;2023-08-20T09:49:17;28.30;99.90
33715;DHT22;20043;50.998;4.754;2023-08-20T09:51:46;28.40;99.90
33715;DHT22;20043;50.998;4.754;2023-08-20T09:54:23;28.60;99.90
33715;DHT22;20043;50.998;4.754;2023-08-20T09:56:55;28.50;99.90
33715;DHT22;20043;50.998;4.754;2023-08-20T09:59:24;28.30;99.90
33715;DHT22;20043;50.998;4.754;2023-08-20T10:01:50;28.40;99.90
33715;DHT22;20043;50.998;4.754;2023-08-20T10:04:17;28.30;99.90
33715;DHT22;20043;50.998;4.754;2023-08-20T10:06:44;28.30;99.90
33715;DHT22;20043;50.998;4.754;2023-08-20T10:09:09;28.00;99.90
33715;DHT22;20043;50.998;4.754;2023-08-20T10:11:35;27.90;99.90
33715;DHT22;20043;50.998;4.754;2023-08-20T10:14:02;28.10;99.90
33715;DHT22;20043;50.998;4.754;2023-08-20T10:16:28;28.10;99.90
33715;DHT22;20043;50.998;4.754;2023-08-20T10:19:05;28.20;99.90
33715;DHT22;20043;50.998;4.754;2023-08-20T10:21:32;28.40;99.90
33715;DHT22;20043;50.998;4.754;2023-08-20T10:24:03;28.40;99.90
33715;DHT22;20043;50.998;4.754;2023-08-20T10:26:29;28.50;99.90
33715;DHT22;20043;50.998;4.754;2023-08-20T10:31:59;28.40;99.90
33715;DHT22;20043;50.998;4.754;2023-08-20T10:34:35;28.70;99.90
33715;DHT22;20043;50.998;4.754;2023-08-20T10:37:08;28.90;99.90
33715;DHT22;20043;50.998;4.754;2023-08-20T10:39:34;29.10;99.90
33715;DHT22;20043;50.998;4.754;2023-08-20T10:42:21;29.10;99.90
33715;DHT22;20043;50.998;4.754;2023-08-20T10:47:43;29.10;99.90
33715;DHT22;20043;50.998;4.754;2023-08-20T10:50:16;29.20;99.90
33715;DHT22;20043;50.998;4.754;2023-08-20T10:52:48;29.00;99.90
33715;DHT22;20043;50.998;4.754;2023-08-20T10:55:14;29.10;99.90
33715;DHT22;20043;50.998;4.754;2023-08-20T10:57:41;29.20;99.90
33715;DHT22;20043;50.998;4.754;2023-08-20T11:00:07;29.30;99.90
33715;DHT22;20043;50.998;4.754;2023-08-20T11:02:40;29.00;99.90
33715;DHT22;20043;50.998;4.754;2023-08-20T11:05:20;29.00;99.90
33715;DHT22;20043;50.998;4.754;2023-08-20T11:07:49;29.00;99.90
33715;DHT22;20043;50.998;4.754;2023-08-20T11:10:16;29.30;99.90
33715;DHT22;20043;50.998;4.754;2023-08-20T11:12:46;28.90;99.90
33715;DHT22;20043;50.998;4.754;2023-08-20T11:15:12;29.20;99.90
33715;DHT22;20043;50.998;4.754;2023-08-20T11:17:42;29.40;99.90
33715;DHT22;20043;50.998;4.754;2023-08-20T11:20:09;29.50;99.90
33715;DHT22;20043;50.998;4.754;2023-08-20T11:22:36;29.70;99.90
33715;DHT22;20043;50.998;4.754;2023-08-20T11:25:03;29.50;99.90
33715;DHT22;20043;50.998;4.754;2023-08-20T11:27:29;29.50;99.90
33715;DHT22;20043;50.998;4.754;2023-08-20T11:29:57;29.60;99.90
33715;DHT22;20043;50.998;4.754;2023-08-20T11:32:25;29.70;99.90
33715;DHT22;20043;50.998;4.754;2023-08-20T11:34:52;29.80;99.90
33715;DHT22;20043;50.998;4.754;2023-08-20T11:37:20;29.60;99.90
33715;DHT22;20043;50.998;4.754;2023-08-20T11:39:50;29.50;99.90
33715;DHT22;20043;50.998;4.754;2023-08-20T11:42:16;29.40;99.90
33715;DHT22;20043;50.998;4.754;2023-08-20T11:44:43;29.50;99.90
33715;DHT22;20043;50.998;4.754;2023-08-20T11:47:18;29.40;99.90
33715;DHT22;20043;50.998;4.754;2023-08-20T11:49:44;29.40;99.90
33715;DHT22;20043;50.998;4.754;2023-08-20T11:52:10;29.30;99.90
33715;DHT22;20043;50.998;4.754;2023-08-20T11:54:38;29.20;99.90
33715;DHT22;20043;50.998;4.754;2023-08-20T11:57:05;29.20;99.90
33715;DHT22;20043;50.998;4.754;2023-08-20T11:59:32;29.50;99.90
33715;DHT22;20043;50.998;4.754;2023-08-20T12:02:00;29.70;99.90
33715;DHT22;20043;50.998;4.754;2023-08-20T12:04:27;30.10;99.90
33715;DHT22;20043;50.998;4.754;2023-08-20T12:07:09;30.20;99.90
33715;DHT22;20043;50.998;4.754;2023-08-20T12:09:35;29.80;99.90
33715;DHT22;20043;50.998;4.754;2023-08-20T12:12:02;29.70;99.90
33715;DHT22;20043;50.998;4.754;2023-08-20T12:14:28;29.60;99.90
33715;DHT22;20043;50.998;4.754;2023-08-20T12:16:54;29.90;99.90
33715;DHT22;20043;50.998;4.754;2023-08-20T12:19:20;30.00;99.90
33715;DHT22;20043;50.998;4.754;2023-08-20T12:21:46;30.00;99.90
33715;DHT22;20043;50.998;4.754;2023-08-20T12:24:12;30.10;99.90
33715;DHT22;20043;50.998;4.754;2023-08-20T12:26:39;29.90;99.90
33715;DHT22;20043;50.998;4.754;2023-08-20T12:29:05;29.90;99.90
33715;DHT22;20043;50.998;4.754;2023-08-20T12:31:34;29.70;99.90
33715;DHT22;20043;50.998;4.754;2023-08-20T12:34:00;29.70;99.90
33715;DHT22;20043;50.998;4.754;2023-08-20T12:36:27;29.50;99.90
33715;DHT22;20043;50.998;4.754;2023-08-20T12:38:52;29.40;99.90
33715;DHT22;20043;50.998;4.754;2023-08-20T12:41:21;29.40;99.90
33715;DHT22;20043;50.998;4.754;2023-08-20T12:43:47;29.40;99.90
33715;DHT22;20043;50.998;4.754;2023-08-20T12:46:13;29.40;99.90
33715;DHT22;20043;50.998;4.754;2023-08-20T12:48:39;29.60;99.90
33715;DHT22;20043;50.998;4.754;2023-08-20T12:51:05;29.80;99.90
33715;DHT22;20043;50.998;4.754;2023-08-20T12:53:31;29.70;99.90
33715;DHT22;20043;50.998;4.754;2023-08-20T12:55:57;29.90;99.90
33715;DHT22;20043;50.998;4.754;2023-08-20T12:58:23;30.20;99.90
33715;DHT22;20043;50.998;4.754;2023-08-20T13:00:50;30.00;99.90
33715;DHT22;20043;50.998;4.754;2023-08-20T13:03:17;29.80;99.90
33715;DHT22;20043;50.998;4.754;2023-08-20T13:05:43;30.10;99.90
33715;DHT22;20043;50.998;4.754;2023-08-20T13:08:09;30.10;99.90
33715;DHT22;20043;50.998;4.754;2023-08-20T13:10:36;30.20;99.90
33715;DHT22;20043;50.998;4.754;2023-08-20T13:13:03;30.50;99.90
33715;DHT22;20043;50.998;4.754;2023-08-20T13:15:36;30.60;99.90
33715;DHT22;20043;50.998;4.754;2023-08-20T13:18:03;30.80;99.90
33715;DHT22;20043;50.998;4.754;2023-08-20T13:20:29;30.90;99.90
33715;DHT22;20043;50.998;4.754;2023-08-20T13:22:55;31.00;99.90
33715;DHT22;20043;50.998;4.754;2023-08-20T13:25:21;30.90;99.90
33715;DHT22;20043;50.998;4.754;2023-08-20T13:27:47;30.80;99.90
33715;DHT22;20043;50.998;4.754;2023-08-20T13:30:13;30.90;99.90
33715;DHT22;20043;50.998;4.754;2023-08-20T13:32:39;31.00;99.90
33715;DHT22;20043;50.998;4.754;2023-08-20T13:35:04;31.20;99.90
33715;DHT22;20043;50.998;4.754;2023-08-20T13:37:31;31.10;99.90
33715;DHT22;20043;50.998;4.754;2023-08-20T13:39:57;30.90;99.90
33715;DHT22;20043;50.998;4.754;2023-08-20T13:42:23;30.80;99.90
33715;DHT22;20043;50.998;4.754;2023-08-20T13:44:48;30.70;99.90
33715;DHT22;20043;50.998;4.754;2023-08-20T13:47:14;30.70;99.90
33715;DHT22;20043;50.998;4.754;2023-08-20T13:49:39;30.60;99.90
33715;DHT22;20043;50.998;4.754;2023-08-20T13:52:05;30.60;99.90
33715;DHT22;20043;50.998;4.754;2023-08-20T13:54:32;30.60;99.90
33715;DHT22;20043;50.998;4.754;2023-08-20T13:56:58;30.60;99.90
33715;DHT22;20043;50.998;4.754;2023-08-20T13:59:24;30.70;99.90
33715;DHT22;20043;50.998;4.754;2023-08-20T14:01:49;30.70;99.90
33715;DHT22;20043;50.998;4.754;2023-08-20T14:04:15;30.80;99.90
33715;DHT22;20043;50.998;4.754;2023-08-20T14:06:40;30.90;99.90
33715;DHT22;20043;50.998;4.754;2023-08-20T14:09:06;31.10;99.90
33715;DHT22;20043;50.998;4.754;2023-08-20T14:11:32;31.00;99.90
33715;DHT22;20043;50.998;4.754;2023-08-20T14:13:58;31.10;99.90
33715;DHT22;20043;50.998;4.754;2023-08-20T14:16:24;31.20;99.90
33715;DHT22;20043;50.998;4.754;2023-08-20T14:18:50;31.30;99.90
33715;DHT22;20043;50.998;4.754;2023-08-20T14:21:15;31.40;99.90
33715;DHT22;20043;50.998;4.754;2023-08-20T14:23:41;31.40;99.90
33715;DHT22;20043;50.998;4.754;2023-08-20T14:26:07;31.20;99.90
33715;DHT22;20043;50.998;4.754;2023-08-20T14:28:33;31.00;99.90
33715;DHT22;20043;50.998;4.754;2023-08-20T14:31:08;30.80;99.90
33715;DHT22;20043;50.998;4.754;2023-08-20T14:33:34;30.70;99.90
33715;DHT22;20043;50.998;4.754;2023-08-20T14:35:59;30.50;99.90
33715;DHT22;20043;50.998;4.754;2023-08-20T14:38:25;30.50;99.90
33715;DHT22;20043;50.998;4.754;2023-08-20T14:40:51;30.50;99.90
33715;DHT22;20043;50.998;4.754;2023-08-20T14:43:17;30.10;99.90
33715;DHT22;20043;50.998;4.754;2023-08-20T14:45:42;30.00;99.90
33715;DHT22;20043;50.998;4.754;2023-08-20T14:48:08;30.10;99.90
33715;DHT22;20043;50.998;4.754;2023-08-20T14:50:33;30.20;99.90
33715;DHT22;20043;50.998;4.754;2023-08-20T14:53:00;30.30;99.90
33715;DHT22;20043;50.998;4.754;2023-08-20T14:55:25;30.60;99.90
33715;DHT22;20043;50.998;4.754;2023-08-20T14:57:51;30.50;99.90
33715;DHT22;20043;50.998;4.754;2023-08-20T15:00:17;30.60;99.90
33715;DHT22;20043;50.998;4.754;2023-08-20T15:02:46;30.60;99.90
33715;DHT22;20043;50.998;4.754;2023-08-20T15:05:12;30.60;99.90
33715;DHT22;20043;50.998;4.754;2023-08-20T15:07:38;30.90;99.90
33715;DHT22;20043;50.998;4.754;2023-08-20T15:10:03;31.20;99.90
33715;DHT22;20043;50.998;4.754;2023-08-20T15:12:37;31.40;99.90
33715;DHT22;20043;50.998;4.754;2023-08-20T15:15:03;31.50;99.90
33715;DHT22;20043;50.998;4.754;2023-08-20T15:17:30;31.50;99.90
33715;DHT22;20043;50.998;4.754;2023-08-20T15:19:57;31.60;99.90
33715;DHT22;20043;50.998;4.754;2023-08-20T15:22:22;31.60;99.90
33715;DHT22;20043;50.998;4.754;2023-08-20T15:24:48;31.50;99.90
33715;DHT22;20043;50.998;4.754;2023-08-20T15:27:19;31.50;99.90
33715;DHT22;20043;50.998;4.754;2023-08-20T15:29:45;31.70;99.90
33715;DHT22;20043;50.998;4.754;2023-08-20T15:32:11;31.80;99.90
33715;DHT22;20043;50.998;4.754;2023-08-20T15:34:36;31.90;99.90
33715;DHT22;20043;50.998;4.754;2023-08-20T15:37:09;31.80;99.90
33715;DHT22;20043;50.998;4.754;2023-08-20T15:39:34;31.90;99.90